createdAt,value
2024-02-28T00:01:10.961Z,9.46
2024-02-28T00:05:03.549Z,9.41
2024-02-28T00:09:02.565Z,9.33
2024-02-28T00:13:00.620Z,9.27
2024-02-28T00:16:59.608Z,9.25
2024-02-28T00:21:01.512Z,9.28
2024-02-28T00:24:59.569Z,9.30
2024-02-28T00:28:57.534Z,9.30
2024-02-28T00:32:55.656Z,9.30
2024-02-28T00:36:56.269Z,9.26
2024-02-28T00:40:54.503Z,9.18
2024-02-28T00:44:52.489Z,9.06
2024-02-28T00:48:50.546Z,9.02
2024-02-28T00:52:41.644Z,8.99
2024-02-28T00:56:39.509Z,9.01
2024-02-28T01:00:37.528Z,9.04
2024-02-28T01:04:35.502Z,9.06
2024-02-28T01:08:33.433Z,9.05
2024-02-28T01:12:31.540Z,9.04
2024-02-28T01:16:29.467Z,9.00
2024-02-28T01:20:27.489Z,8.95
2024-02-28T01:24:25.527Z,8.89
2024-02-28T01:28:23.498Z,8.87
2024-02-28T01:32:21.422Z,8.84
2024-02-28T01:36:22.563Z,8.88
2024-02-28T01:40:20.424Z,8.91
2024-02-28T01:44:18.492Z,8.91
2024-02-28T01:48:16.845Z,8.91
2024-02-28T01:52:14.442Z,8.87
2024-02-28T01:56:12.445Z,8.80
2024-02-28T02:00:10.419Z,8.69
2024-02-28T02:04:08.417Z,8.58
2024-02-28T02:08:06.491Z,8.53
2024-02-28T02:12:04.379Z,8.56
2024-02-28T02:16:02.474Z,8.62
2024-02-28T02:20:00.449Z,8.71
2024-02-28T02:23:58.385Z,8.78
2024-02-28T02:27:56.427Z,8.84
2024-02-28T02:31:54.406Z,8.87
2024-02-28T02:35:52.398Z,8.86
2024-02-28T02:39:50.494Z,8.84
2024-02-28T02:43:48.399Z,8.83
2024-02-28T02:47:46.430Z,8.84
2024-02-28T02:51:44.445Z,8.87
2024-02-28T02:55:42.366Z,8.93
2024-02-28T02:59:40.350Z,8.96
2024-02-28T03:03:38.433Z,8.96
2024-02-28T03:07:36.358Z,8.93
2024-02-28T03:11:34.331Z,8.89
2024-02-28T03:15:32.355Z,8.84
2024-02-28T03:19:30.380Z,8.83
2024-02-28T03:23:28.332Z,8.87
2024-02-28T03:27:26.335Z,8.95
2024-02-28T03:31:24.301Z,9.02
2024-02-28T03:35:22.320Z,9.08
2024-02-28T03:39:20.387Z,9.08
2024-02-28T03:43:18.366Z,9.07
2024-02-28T03:47:16.307Z,9.05
2024-02-28T03:51:14.296Z,9.01
2024-02-28T03:55:12.268Z,9.00
2024-02-28T03:59:11.300Z,9.03
2024-02-28T04:03:09.285Z,9.07
2024-02-28T04:07:07.267Z,9.06
2024-02-28T04:11:05.299Z,9.06
2024-02-28T04:15:03.256Z,9.08
2024-02-28T04:19:01.442Z,9.06
2024-02-28T04:22:59.263Z,9.04
2024-02-28T04:26:57.225Z,8.96
2024-02-28T04:30:55.353Z,8.90
2024-02-28T04:34:53.228Z,8.88
2024-02-28T04:38:51.227Z,8.84
2024-02-28T04:42:49.374Z,8.89
2024-02-28T04:46:47.326Z,8.91
2024-02-28T04:50:45.228Z,8.91
2024-02-28T04:54:43.235Z,8.91
2024-02-28T04:58:41.206Z,8.90
2024-02-28T05:02:39.192Z,8.86
2024-02-28T05:06:40.265Z,8.81
2024-02-28T05:10:38.218Z,8.75
2024-02-28T05:14:36.187Z,8.72
2024-02-28T05:18:34.301Z,8.73
2024-02-28T05:22:32.155Z,8.76
2024-02-28T05:26:30.277Z,8.77
2024-02-28T05:30:28.236Z,8.81
2024-02-28T05:34:26.181Z,8.86
2024-02-28T05:38:24.161Z,8.87
2024-02-28T05:42:25.268Z,8.88
2024-02-28T05:46:23.195Z,8.91
2024-02-28T05:50:22.301Z,8.93
2024-02-28T05:54:20.183Z,8.99
2024-02-28T05:58:18.146Z,9.07
2024-02-28T06:02:16.180Z,9.20
2024-02-28T06:06:14.177Z,9.34
2024-02-28T06:10:12.168Z,9.47
2024-02-28T06:14:10.144Z,9.57
2024-02-28T06:18:08.195Z,9.65
2024-02-28T06:22:06.260Z,9.72
2024-02-28T06:26:04.088Z,9.80
2024-02-28T06:30:02.116Z,9.91
2024-02-28T06:34:00.190Z,10.04
2024-02-28T06:37:59.129Z,10.21
2024-02-28T06:41:58.124Z,10.41
2024-02-28T06:45:56.235Z,10.59
2024-02-28T06:49:54.165Z,10.74
2024-02-28T06:53:52.176Z,10.89
2024-02-28T06:57:50.112Z,10.98
2024-02-28T07:01:27.847Z,11.03
2024-02-28T07:04:52.036Z,11.05
2024-02-28T07:08:16.127Z,11.06
2024-02-28T07:11:40.672Z,11.08
2024-02-28T07:15:05.075Z,11.07
2024-02-28T07:18:30.179Z,11.10
2024-02-28T07:21:54.447Z,11.18
2024-02-28T07:25:21.137Z,11.28
2024-02-28T07:28:50.578Z,11.37
2024-02-28T07:32:14.554Z,11.45
2024-02-28T07:35:52.165Z,11.54
2024-02-28T07:39:16.151Z,11.63
2024-02-28T07:42:40.196Z,11.70
2024-02-28T07:46:04.301Z,11.76
2024-02-28T07:49:29.143Z,11.82
2024-02-28T07:52:56.888Z,11.88
2024-02-28T07:56:22.382Z,11.97
2024-02-28T07:59:46.822Z,12.05
2024-02-28T08:03:10.851Z,12.13
2024-02-28T08:06:35.282Z,12.20
2024-02-28T08:09:59.475Z,12.28
2024-02-28T08:13:23.465Z,12.44
2024-02-28T08:16:47.448Z,12.64
2024-02-28T08:20:11.747Z,12.83
2024-02-28T08:23:35.893Z,13.00
2024-02-28T08:26:59.884Z,13.14
2024-02-28T08:30:23.909Z,13.27
2024-02-28T08:33:48.087Z,13.43
2024-02-28T08:37:12.203Z,13.61
2024-02-28T08:40:36.388Z,13.83
2024-02-28T08:44:00.388Z,14.03
2024-02-28T08:47:28.206Z,14.18
2024-02-28T08:50:52.539Z,14.37
2024-02-28T08:54:16.766Z,14.69
2024-02-28T08:57:40.928Z,14.99
2024-02-28T09:01:05.410Z,15.27
2024-02-28T09:04:30.082Z,15.47
2024-02-28T09:07:56.225Z,15.70
2024-02-28T09:11:20.414Z,15.87
2024-02-28T09:14:45.656Z,15.99
2024-02-28T09:18:10.069Z,16.13
2024-02-28T09:21:34.274Z,16.30
2024-02-28T09:24:58.339Z,16.48
2024-02-28T09:28:22.340Z,16.60
2024-02-28T09:31:46.454Z,16.71
2024-02-28T09:35:11.565Z,16.84
2024-02-28T09:38:36.193Z,16.98
2024-02-28T09:42:00.278Z,17.14
2024-02-28T09:45:25.875Z,17.28
2024-02-28T09:48:52.023Z,17.37
2024-02-28T09:52:16.823Z,17.43
2024-02-28T09:55:41.072Z,17.51
2024-02-28T09:59:05.146Z,17.62
2024-02-28T10:02:33.389Z,17.71
2024-02-28T10:05:57.428Z,17.78
2024-02-28T10:09:21.492Z,17.84
2024-02-28T10:12:45.675Z,17.83
2024-02-28T10:16:09.778Z,17.85
2024-02-28T10:19:33.876Z,17.93
2024-02-28T10:22:57.931Z,17.95
2024-02-28T10:26:22.144Z,17.99
2024-02-28T10:29:47.907Z,18.06
2024-02-28T10:33:16.699Z,18.13
2024-02-28T10:36:41.463Z,18.17
2024-02-28T10:40:07.281Z,18.18
2024-02-28T10:43:32.038Z,18.22
2024-02-28T10:46:56.554Z,18.28
2024-02-28T10:50:20.655Z,18.26
2024-02-28T10:53:49.100Z,18.25
2024-02-28T10:57:15.531Z,18.29
2024-02-28T11:00:42.796Z,18.34
2024-02-28T11:04:08.295Z,18.45
2024-02-28T11:07:33.557Z,18.51
2024-02-28T11:10:58.744Z,18.47
2024-02-28T11:14:26.028Z,18.38
2024-02-28T11:17:50.454Z,18.36
2024-02-28T11:21:18.235Z,18.29
2024-02-28T11:24:46.737Z,18.30
2024-02-28T11:28:11.599Z,18.28
2024-02-28T11:31:35.629Z,18.20
2024-02-28T11:34:59.591Z,18.06
2024-02-28T11:38:23.969Z,17.85
2024-02-28T11:41:48.773Z,17.60
2024-02-28T11:45:13.375Z,17.48
2024-02-28T11:48:37.473Z,17.58
2024-02-28T11:52:01.584Z,17.67
2024-02-28T11:55:27.741Z,17.75
2024-02-28T11:58:56.693Z,17.86
2024-02-28T12:02:20.692Z,17.93
2024-02-28T12:05:45.658Z,17.85
2024-02-28T12:09:11.405Z,17.93
2024-02-28T12:12:36.117Z,18.01
2024-02-28T12:16:00.213Z,18.14
2024-02-28T12:19:26.278Z,18.24
2024-02-28T12:22:50.705Z,18.23
2024-02-28T12:26:14.715Z,18.16
2024-02-28T12:29:38.696Z,18.02
2024-02-28T12:33:02.771Z,17.86
2024-02-28T12:36:28.125Z,17.80
2024-02-28T12:39:52.761Z,17.76
2024-02-28T12:43:16.773Z,17.73
2024-02-28T12:46:40.788Z,17.54
2024-02-28T12:50:05.428Z,17.38
2024-02-28T12:53:29.480Z,17.30
2024-02-28T12:56:53.610Z,17.21
2024-02-28T13:00:18.598Z,17.15
2024-02-28T13:03:42.569Z,17.07
2024-02-28T13:07:07.048Z,16.98
2024-02-28T13:10:31.742Z,16.73
2024-02-28T13:13:56.130Z,16.56
2024-02-28T13:17:20.838Z,16.53
2024-02-28T13:20:44.879Z,16.51
2024-02-28T13:24:09.059Z,16.47
2024-02-28T13:27:33.110Z,16.37
2024-02-28T13:31:03.573Z,16.17
2024-02-28T13:34:30.078Z,16.01
2024-02-28T13:37:55.914Z,15.90
2024-02-28T13:41:19.970Z,15.83
2024-02-28T13:44:44.216Z,15.72
2024-02-28T13:48:18.445Z,15.64
2024-02-28T13:51:43.067Z,15.61
2024-02-28T13:55:09.428Z,15.57
2024-02-28T13:58:39.378Z,15.52
2024-02-28T14:02:10.321Z,15.43
2024-02-28T14:05:35.108Z,15.37
2024-02-28T14:08:59.355Z,15.34
2024-02-28T14:12:23.525Z,15.29
2024-02-28T14:15:48.097Z,15.23
2024-02-28T14:19:12.071Z,15.13
2024-02-28T14:22:36.051Z,15.01
2024-02-28T14:26:00.158Z,14.90
2024-02-28T14:29:24.168Z,14.84
2024-02-28T14:33:09.318Z,14.76
2024-02-28T14:37:07.660Z,14.67
2024-02-28T14:41:05.614Z,14.60
2024-02-28T14:45:03.594Z,14.53
2024-02-28T14:49:01.664Z,14.46
2024-02-28T14:52:59.613Z,14.39
2024-02-28T14:56:57.627Z,14.32
2024-02-28T15:00:56.768Z,14.25
2024-02-28T15:04:55.641Z,14.20
2024-02-28T15:08:53.596Z,14.20
2024-02-28T15:12:52.667Z,14.23
2024-02-28T15:16:50.615Z,14.26
2024-02-28T15:20:48.578Z,14.24
2024-02-28T15:24:47.615Z,14.19
2024-02-28T15:28:45.623Z,14.13
2024-02-28T15:32:46.550Z,14.04
2024-02-28T15:36:44.586Z,14.00
2024-02-28T15:40:42.682Z,13.94
2024-02-28T15:44:40.590Z,13.82
2024-02-28T15:48:38.549Z,13.73
2024-02-28T15:52:36.570Z,13.65
2024-02-28T15:56:34.523Z,13.52
2024-02-28T16:00:32.593Z,13.45
2024-02-28T16:04:30.517Z,13.43
2024-02-28T16:08:28.555Z,13.44
2024-02-28T16:12:26.541Z,13.48
2024-02-28T16:16:24.623Z,13.49
2024-02-28T16:20:23.522Z,13.47
2024-02-28T16:24:21.771Z,13.43
2024-02-28T16:28:19.527Z,13.36
2024-02-28T16:32:17.488Z,13.30
2024-02-28T16:36:15.526Z,13.23
2024-02-28T16:40:14.564Z,13.16
2024-02-28T16:44:12.452Z,13.08
2024-02-28T16:48:11.544Z,13.04
2024-02-28T16:52:09.474Z,13.05
2024-02-28T16:56:07.499Z,13.07
2024-02-28T17:00:05.520Z,13.10
2024-02-28T17:04:03.500Z,13.13
2024-02-28T17:08:01.440Z,13.13
2024-02-28T17:11:59.491Z,13.12
2024-02-28T17:16:01.564Z,13.06
2024-02-28T17:20:00.595Z,12.97
2024-02-28T17:23:58.549Z,12.84
2024-02-28T17:27:56.445Z,12.74
2024-02-28T17:31:54.447Z,12.69
2024-02-28T17:35:52.572Z,12.65
2024-02-28T17:39:50.535Z,12.64
2024-02-28T17:43:49.427Z,12.59
2024-02-28T17:47:47.410Z,12.58
2024-02-28T17:51:45.661Z,12.53
2024-02-28T17:55:43.426Z,12.49
2024-02-28T17:59:41.532Z,12.41
2024-02-28T18:03:39.432Z,12.32
2024-02-28T18:07:37.379Z,12.23
2024-02-28T18:11:44.407Z,12.18
2024-02-28T18:15:42.437Z,12.17
2024-02-28T18:19:40.415Z,12.16
2024-02-28T18:23:38.412Z,12.17
2024-02-28T18:27:36.392Z,12.17
2024-02-28T18:31:34.409Z,12.10
2024-02-28T18:35:33.388Z,12.06
2024-02-28T18:39:31.511Z,12.02
2024-02-28T18:43:29.460Z,11.96
2024-02-28T18:47:27.704Z,11.92
2024-02-28T18:51:25.475Z,11.90
2024-02-28T18:55:23.413Z,11.92
2024-02-28T18:59:21.347Z,11.91
2024-02-28T19:03:19.406Z,11.90
2024-02-28T19:07:17.443Z,11.86
2024-02-28T19:11:15.364Z,11.79
2024-02-28T19:15:14.562Z,11.71
2024-02-28T19:19:12.461Z,11.71
2024-02-28T19:23:10.698Z,11.72
2024-02-28T19:27:08.448Z,11.80
2024-02-28T19:31:06.448Z,11.85
2024-02-28T19:35:04.410Z,11.88
2024-02-28T19:39:03.288Z,11.85
2024-02-28T19:43:01.337Z,11.76
2024-02-28T19:46:59.371Z,11.69
2024-02-28T19:50:57.562Z,11.63
2024-02-28T19:54:55.358Z,11.62
2024-02-28T19:58:55.445Z,11.62
2024-02-28T20:02:53.282Z,11.62
2024-02-28T20:06:51.331Z,11.60
2024-02-28T20:10:49.330Z,11.56
2024-02-28T20:14:49.276Z,11.47
2024-02-28T20:18:47.330Z,11.39
2024-02-28T20:22:45.367Z,11.33
2024-02-28T20:26:43.286Z,11.26
2024-02-28T20:30:41.415Z,11.27
2024-02-28T20:34:39.530Z,11.35
2024-02-28T20:38:37.266Z,11.42
2024-02-28T20:42:35.261Z,11.46
2024-02-28T20:46:33.241Z,11.48
2024-02-28T20:50:33.328Z,11.43
2024-02-28T20:54:31.881Z,11.37
2024-02-28T20:58:29.226Z,11.34
2024-02-28T21:02:27.316Z,11.35
2024-02-28T21:06:27.284Z,11.32
2024-02-28T21:10:25.306Z,11.28
2024-02-28T21:14:23.251Z,11.20
2024-02-28T21:18:22.033Z,11.17
2024-02-28T21:22:20.225Z,11.19
2024-02-28T21:26:18.244Z,11.24
2024-02-28T21:30:16.242Z,11.23
2024-02-28T21:34:14.278Z,11.15
2024-02-28T21:38:12.187Z,11.11
2024-02-28T21:42:11.189Z,11.10
2024-02-28T21:46:09.390Z,11.09
2024-02-28T21:50:07.288Z,11.05
2024-02-28T21:54:05.333Z,10.97
2024-02-28T21:58:03.298Z,10.75
2024-02-28T22:02:01.220Z,10.51
2024-02-28T22:05:59.189Z,10.39
2024-02-28T22:09:57.215Z,10.42
2024-02-28T22:13:55.245Z,10.45
2024-02-28T22:17:53.185Z,10.39
2024-02-28T22:21:51.256Z,10.23
2024-02-28T22:25:49.123Z,10.12
2024-02-28T22:29:47.110Z,10.00
2024-02-28T22:33:45.540Z,9.90
2024-02-28T22:37:43.305Z,9.90
2024-02-28T22:41:42.053Z,9.93
2024-02-28T22:45:40.170Z,9.92
2024-02-28T22:49:38.101Z,9.88
2024-02-28T22:53:36.412Z,9.79
2024-02-28T22:57:34.122Z,9.71
2024-02-28T23:01:32.130Z,9.73
2024-02-28T23:05:31.115Z,9.79
2024-02-28T23:09:36.330Z,9.77
2024-02-28T23:13:34.072Z,9.71
2024-02-28T23:17:41.123Z,9.69
2024-02-28T23:21:40.251Z,9.54
2024-02-28T23:25:38.027Z,9.45
2024-02-28T23:29:37.004Z,9.47
2024-02-28T23:33:35.069Z,9.50
2024-02-28T23:37:32.991Z,9.49
2024-02-28T23:41:31.048Z,9.39
2024-02-28T23:45:29.171Z,9.38
2024-02-28T23:49:27.003Z,9.41
2024-02-28T23:53:24.964Z,9.38
2024-02-28T23:57:23.011Z,9.34
